Cos Cob, Connecticut
Current Conditions -  °F | °C
As of 10:56 AM on Friday 31 Oct 2014 (Local Time) from KHPN Reporting Station
Broken Clouds Broken Clouds  
Wind Chill: 50°   Ceiling: 4700
Heat Index: 50°   Visibility: 10mi
Dew Point: 35°   Wind: 6mph
Humidity: 57%   Direction: 60°ENE
Pressure: 29.99"   Gusts: NA
Location:  41.03°N, 73.6°W
Report Text: KHPN 311456Z 06005KT 10SM BKN047 10/02 A2999 RMK AO2 SLP157 T01000017 58006
Loading
Personal Weather Stations






























Interactive Weather Map
Tropical Storm Tracking
New forecast layout! Learn more

10-Day Weather Forecast

Advertisements
Track Severe Weather on mobile